sensor_id;sensor_type;location;lat;lon;timestamp;pressure;altitude;pressure_sealevel;temperature;humidity
22018;BME280;11173;51.050;7.108;2023-10-13T00:07:27;99301.22;;;16.56;65.83
22018;BME280;11173;51.050;7.108;2023-10-13T00:17:28;99288.69;;;16.57;65.76
22018;BME280;11173;51.050;7.108;2023-10-13T00:27:28;99284.97;;;16.60;65.81
22018;BME280;11173;51.050;7.108;2023-10-13T00:37:37;99258.22;;;16.64;65.58
22018;BME280;11173;51.050;7.108;2023-10-13T00:47:45;99250.25;;;16.63;66.05
22018;BME280;11173;51.050;7.108;2023-10-13T00:57:59;99245.25;;;16.67;66.09
22018;BME280;11173;51.050;7.108;2023-10-13T01:08:04;99236.81;;;16.67;66.27
22018;BME280;11173;51.050;7.108;2023-10-13T01:18:11;99210.91;;;16.72;66.05
22018;BME280;11173;51.050;7.108;2023-10-13T01:28:13;99207.16;;;16.75;66.25
22018;BME280;11173;51.050;7.108;2023-10-13T01:38:16;99186.81;;;16.80;66.11
22018;BME280;11173;51.050;7.108;2023-10-13T01:48:16;99177.44;;;16.83;66.26
22018;BME280;11173;51.050;7.108;2023-10-13T01:58:18;99171.94;;;16.89;66.57
22018;BME280;11173;51.050;7.108;2023-10-13T02:08:23;99157.88;;;16.89;66.31
22018;BME280;11173;51.050;7.108;2023-10-13T02:18:25;99130.81;;;16.92;66.19
22018;BME280;11173;51.050;7.108;2023-10-13T02:28:28;99129.84;;;16.95;66.31
22018;BME280;11173;51.050;7.108;2023-10-13T02:38:39;99105.63;;;16.97;66.31
22018;BME280;11173;51.050;7.108;2023-10-13T02:48:39;99096.69;;;16.99;66.66
22018;BME280;11173;51.050;7.108;2023-10-13T02:58:41;99087.00;;;17.00;66.79
22018;BME280;11173;51.050;7.108;2023-10-13T03:08:46;99083.72;;;17.01;66.34
22018;BME280;11173;51.050;7.108;2023-10-13T03:18:47;99076.03;;;17.02;66.66
22018;BME280;11173;51.050;7.108;2023-10-13T03:28:57;99054.59;;;17.04;66.31
22018;BME280;11173;51.050;7.108;2023-10-13T03:38:58;99033.06;;;17.01;66.29
22018;BME280;11173;51.050;7.108;2023-10-13T03:48:58;99022.63;;;16.93;66.67
22018;BME280;11173;51.050;7.108;2023-10-13T03:59:01;99006.00;;;16.80;67.09
22018;BME280;11173;51.050;7.108;2023-10-13T04:09:06;98997.88;;;16.82;67.74
22018;BME280;11173;51.050;7.108;2023-10-13T04:19:25;98984.88;;;16.84;67.47
22018;BME280;11173;51.050;7.108;2023-10-13T04:29:29;98988.56;;;16.90;67.54
22018;BME280;11173;51.050;7.108;2023-10-13T04:39:48;98978.41;;;16.93;67.14
22018;BME280;11173;51.050;7.108;2023-10-13T04:49:57;98957.88;;;17.02;67.46
22018;BME280;11173;51.050;7.108;2023-10-13T05:00:05;98952.53;;;17.04;67.51
22018;BME280;11173;51.050;7.108;2023-10-13T05:10:13;98933.91;;;17.06;67.58
22018;BME280;11173;51.050;7.108;2023-10-13T05:20:33;98944.78;;;17.14;67.68
22018;BME280;11173;51.050;7.108;2023-10-13T05:30:53;98932.75;;;17.13;67.58
22018;BME280;11173;51.050;7.108;2023-10-13T05:41:13;98931.66;;;17.10;67.66
22018;BME280;11173;51.050;7.108;2023-10-13T05:51:32;98923.13;;;17.05;67.62
22018;BME280;11173;51.050;7.108;2023-10-13T06:01:36;98934.28;;;16.99;67.69
22018;BME280;11173;51.050;7.108;2023-10-13T06:12:13;98935.25;;;16.96;67.85
22018;BME280;11173;51.050;7.108;2023-10-13T06:22:32;98933.19;;;16.97;68.66
22018;BME280;11173;51.050;7.108;2023-10-13T06:32:50;98935.66;;;17.04;68.40
22018;BME280;11173;51.050;7.108;2023-10-13T06:42:54;98917.13;;;17.12;68.20
22018;BME280;11173;51.050;7.108;2023-10-13T06:53:05;98911.88;;;17.20;68.41
22018;BME280;11173;51.050;7.108;2023-10-13T07:03:05;98888.19;;;17.26;68.11
22018;BME280;11173;51.050;7.108;2023-10-13T07:13:06;98868.59;;;17.32;68.38
22018;BME280;11173;51.050;7.108;2023-10-13T07:23:08;98891.59;;;17.45;68.95
22018;BME280;11173;51.050;7.108;2023-10-13T07:33:11;98885.19;;;17.60;68.50
22018;BME280;11173;51.050;7.108;2023-10-13T07:43:15;98869.75;;;17.70;68.15
22018;BME280;11173;51.050;7.108;2023-10-13T07:53:22;98879.13;;;17.82;68.69
22018;BME280;11173;51.050;7.108;2023-10-13T08:03:22;98851.69;;;17.97;69.15
22018;BME280;11173;51.050;7.108;2023-10-13T08:13:35;98846.72;;;18.27;68.89
22018;BME280;11173;51.050;7.108;2023-10-13T08:23:38;98837.31;;;18.57;69.27
22018;BME280;11173;51.050;7.108;2023-10-13T08:33:54;98820.47;;;18.88;68.53
22018;BME280;11173;51.050;7.108;2023-10-13T08:44:07;98829.91;;;19.12;68.00
22018;BME280;11173;51.050;7.108;2023-10-13T08:54:14;98833.16;;;19.25;67.62
22018;BME280;11173;51.050;7.108;2023-10-13T09:04:33;98822.19;;;19.33;67.86
22018;BME280;11173;51.050;7.108;2023-10-13T09:14:40;98816.75;;;19.66;68.16
22018;BME280;11173;51.050;7.108;2023-10-13T09:24:57;98813.75;;;20.30;67.94
22018;BME280;11173;51.050;7.108;2023-10-13T09:35:01;98792.78;;;20.71;66.41
22018;BME280;11173;51.050;7.108;2023-10-13T09:45:03;98780.97;;;20.83;66.05
22018;BME280;11173;51.050;7.108;2023-10-13T09:55:11;98772.25;;;21.10;64.33
22018;BME280;11173;51.050;7.108;2023-10-13T10:05:24;98748.56;;;21.01;63.62
22018;BME280;11173;51.050;7.108;2023-10-13T10:15:29;98736.22;;;20.88;64.17
22018;BME280;11173;51.050;7.108;2023-10-13T10:25:36;98756.56;;;21.09;64.62
22018;BME280;11173;51.050;7.108;2023-10-13T10:36:01;98751.59;;;21.54;64.25
22018;BME280;11173;51.050;7.108;2023-10-13T10:46:01;98737.56;;;21.96;63.37
22018;BME280;11173;51.050;7.108;2023-10-13T10:56:08;98714.19;;;22.31;64.05
22018;BME280;11173;51.050;7.108;2023-10-13T11:06:20;98685.75;;;22.42;60.22
22018;BME280;11173;51.050;7.108;2023-10-13T11:16:22;98690.53;;;22.23;60.62
22018;BME280;11173;51.050;7.108;2023-10-13T11:26:35;98669.41;;;22.13;61.02
22018;BME280;11173;51.050;7.108;2023-10-13T11:36:49;98655.91;;;22.30;60.72
22018;BME280;11173;51.050;7.108;2023-10-13T11:46:49;98666.03;;;22.56;60.40
22018;BME280;11173;51.050;7.108;2023-10-13T11:56:56;98642.47;;;22.67;59.37
22018;BME280;11173;51.050;7.108;2023-10-13T12:06:59;98634.88;;;22.80;59.06
22018;BME280;11173;51.050;7.108;2023-10-13T12:17:17;98621.13;;;22.90;57.10
22018;BME280;11173;51.050;7.108;2023-10-13T12:27:24;98609.44;;;22.69;56.39
22018;BME280;11173;51.050;7.108;2023-10-13T12:37:48;98598.25;;;22.52;56.96
22018;BME280;11173;51.050;7.108;2023-10-13T12:47:49;98601.44;;;22.37;57.21
22018;BME280;11173;51.050;7.108;2023-10-13T12:58:08;98584.53;;;22.20;56.85
22018;BME280;11173;51.050;7.108;2023-10-13T13:08:08;98587.44;;;22.09;55.24
22018;BME280;11173;51.050;7.108;2023-10-13T13:18:09;98585.97;;;22.02;55.41
22018;BME280;11173;51.050;7.108;2023-10-13T13:28:13;98584.16;;;21.99;56.20
22018;BME280;11173;51.050;7.108;2023-10-13T13:38:15;98592.50;;;21.86;56.26
22018;BME280;11173;51.050;7.108;2023-10-13T13:48:30;98597.25;;;21.67;55.75
22018;BME280;11173;51.050;7.108;2023-10-13T13:58:31;98548.13;;;21.47;55.51
22018;BME280;11173;51.050;7.108;2023-10-13T14:08:32;98554.59;;;21.36;55.90
22018;BME280;11173;51.050;7.108;2023-10-13T14:18:34;98559.78;;;21.32;56.71
22018;BME280;11173;51.050;7.108;2023-10-13T14:28:35;98560.31;;;21.31;56.60
22018;BME280;11173;51.050;7.108;2023-10-13T14:38:36;98569.09;;;21.27;56.58
22018;BME280;11173;51.050;7.108;2023-10-13T14:48:37;98545.69;;;21.15;56.52
22018;BME280;11173;51.050;7.108;2023-10-13T14:58:39;98540.31;;;21.06;56.75
22018;BME280;11173;51.050;7.108;2023-10-13T15:08:44;98543.72;;;20.99;56.32
22018;BME280;11173;51.050;7.108;2023-10-13T15:18:49;98532.94;;;20.86;56.54
22018;BME280;11173;51.050;7.108;2023-10-13T15:28:53;98524.97;;;20.73;56.60
22018;BME280;11173;51.050;7.108;2023-10-13T15:38:55;98503.91;;;20.57;56.51
22018;BME280;11173;51.050;7.108;2023-10-13T15:48:56;98523.97;;;20.48;56.36
22018;BME280;11173;51.050;7.108;2023-10-13T15:59:00;98521.69;;;20.41;56.34
22018;BME280;11173;51.050;7.108;2023-10-13T16:09:07;98501.66;;;20.27;56.02
22018;BME280;11173;51.050;7.108;2023-10-13T16:19:21;98499.09;;;20.13;56.42
22018;BME280;11173;51.050;7.108;2023-10-13T16:29:22;98491.59;;;19.98;56.87
22018;BME280;11173;51.050;7.108;2023-10-13T16:39:22;98487.50;;;19.82;57.25
22018;BME280;11173;51.050;7.108;2023-10-13T16:49:22;98482.38;;;19.70;57.06
22018;BME280;11173;51.050;7.108;2023-10-13T16:59:23;98474.91;;;19.61;57.38
22018;BME280;11173;51.050;7.108;2023-10-13T17:09:26;98456.94;;;19.53;56.86
22018;BME280;11173;51.050;7.108;2023-10-13T17:19:26;98433.28;;;19.44;56.81
22018;BME280;11173;51.050;7.108;2023-10-13T17:29:27;98434.81;;;19.40;57.36
22018;BME280;11173;51.050;7.108;2023-10-13T17:39:28;98428.91;;;19.38;57.53
22018;BME280;11173;51.050;7.108;2023-10-13T17:49:29;98423.00;;;19.36;57.73
22018;BME280;11173;51.050;7.108;2023-10-13T17:59:29;98405.03;;;19.27;58.21
22018;BME280;11173;51.050;7.108;2023-10-13T18:09:30;98380.09;;;19.09;58.25
22018;BME280;11173;51.050;7.108;2023-10-13T18:19:30;98383.16;;;19.05;58.25
22018;BME280;11173;51.050;7.108;2023-10-13T18:29:33;98375.72;;;19.02;58.30
22018;BME280;11173;51.050;7.108;2023-10-13T18:39:33;98355.69;;;19.00;58.07
22018;BME280;11173;51.050;7.108;2023-10-13T18:49:34;98350.59;;;18.99;58.61
22018;BME280;11173;51.050;7.108;2023-10-13T18:59:38;98340.81;;;19.00;58.38
22018;BME280;11173;51.050;7.108;2023-10-13T19:09:38;98335.44;;;19.02;58.64
22018;BME280;11173;51.050;7.108;2023-10-13T19:19:39;98286.19;;;19.03;58.33
22018;BME280;11173;51.050;7.108;2023-10-13T19:29:40;98268.75;;;18.99;58.47
22018;BME280;11173;51.050;7.108;2023-10-13T19:39:40;98266.41;;;18.92;58.77
22018;BME280;11173;51.050;7.108;2023-10-13T19:49:41;98282.34;;;18.89;58.47
22018;BME280;11173;51.050;7.108;2023-10-13T19:59:43;98252.31;;;18.92;58.21
22018;BME280;11173;51.050;7.108;2023-10-13T20:09:44;98262.06;;;19.02;56.75
22018;BME280;11173;51.050;7.108;2023-10-13T20:19:44;98259.50;;;19.21;57.93
22018;BME280;11173;51.050;7.108;2023-10-13T20:29:46;98254.38;;;19.36;57.10
22018;BME280;11173;51.050;7.108;2023-10-13T20:39:47;98257.19;;;19.47;56.51
22018;BME280;11173;51.050;7.108;2023-10-13T20:49:47;98244.13;;;19.39;57.08
22018;BME280;11173;51.050;7.108;2023-10-13T20:59:48;98237.19;;;18.95;58.28
22018;BME280;11173;51.050;7.108;2023-10-13T21:09:49;98225.34;;;18.62;58.65
22018;BME280;11173;51.050;7.108;2023-10-13T21:19:50;98225.81;;;18.38;59.93
22018;BME280;11173;51.050;7.108;2023-10-13T21:29:50;98214.53;;;18.27;60.71
22018;BME280;11173;51.050;7.108;2023-10-13T21:39:51;98223.00;;;18.38;60.09
22018;BME280;11173;51.050;7.108;2023-10-13T21:49:51;98208.44;;;18.57;60.30
22018;BME280;11173;51.050;7.108;2023-10-13T21:59:52;98183.03;;;18.57;60.20
22018;BME280;11173;51.050;7.108;2023-10-13T22:09:52;98187.16;;;18.50;60.47
22018;BME280;11173;51.050;7.108;2023-10-13T22:19:52;98201.25;;;18.44;60.72
22018;BME280;11173;51.050;7.108;2023-10-13T22:29:53;98188.91;;;18.36;61.20
22018;BME280;11173;51.050;7.108;2023-10-13T22:39:53;98157.88;;;18.19;60.68
22018;BME280;11173;51.050;7.108;2023-10-13T22:49:54;98151.94;;;18.00;61.93
22018;BME280;11173;51.050;7.108;2023-10-13T22:59:55;98150.84;;;17.81;62.62
22018;BME280;11173;51.050;7.108;2023-10-13T23:09:55;98160.53;;;17.68;61.95
22018;BME280;11173;51.050;7.108;2023-10-13T23:20:00;98168.66;;;17.55;62.57
22018;BME280;11173;51.050;7.108;2023-10-13T23:30:01;98150.44;;;17.50;62.59
22018;BME280;11173;51.050;7.108;2023-10-13T23:40:03;98141.81;;;17.60;62.50
22018;BME280;11173;51.050;7.108;2023-10-13T23:50:11;98142.63;;;17.72;62.00
